createdAt,value
2022-12-28T00:00:41.122Z,25.13
2022-12-28T00:05:44.581Z,24.38
2022-12-28T00:11:08.525Z,22.63
2022-12-28T00:16:19.951Z,22.90
2022-12-28T00:21:23.894Z,25.00
2022-12-28T00:26:30.744Z,23.67
2022-12-28T00:31:35.087Z,24.98
2022-12-28T00:37:09.428Z,24.77
2022-12-28T00:42:03.436Z,23.20
2022-12-28T00:47:06.987Z,24.63
2022-12-28T00:52:10.504Z,23.52
2022-12-28T00:57:15.315Z,24.33
2022-12-28T01:02:18.704Z,25.75
2022-12-28T01:07:22.117Z,23.60
2022-12-28T01:12:26.899Z,25.23
2022-12-28T01:22:33.789Z,22.50
2022-12-28T01:27:38.652Z,24.63
2022-12-28T01:37:45.183Z,24.67
2022-12-28T01:42:50.130Z,20.65
2022-12-28T01:47:56.514Z,19.73
2022-12-28T01:53:03.791Z,21.52
2022-12-28T01:58:12.888Z,19.45
2022-12-28T02:03:20.203Z,24.25
2022-12-28T02:08:29.278Z,23.55
2022-12-28T02:13:34.899Z,23.25
2022-12-28T02:18:58.468Z,20.25
2022-12-28T02:24:40.600Z,22.25
2022-12-28T02:30:01.732Z,18.15
2022-12-28T02:35:13.757Z,19.92
2022-12-28T02:40:20.931Z,19.23
2022-12-28T02:45:52.915Z,21.70
2022-12-28T02:51:09.234Z,23.75
2022-12-28T02:56:24.513Z,18.75
2022-12-28T03:01:41.954Z,24.48
2022-12-28T03:07:11.370Z,18.23
2022-12-28T03:12:20.405Z,22.42
2022-12-28T03:17:44.880Z,22.55
2022-12-28T03:23:06.372Z,21.08
2022-12-28T03:28:30.174Z,24.05
2022-12-28T03:33:35.885Z,22.55
2022-12-28T03:38:48.916Z,21.35
2022-12-28T03:43:57.484Z,23.70
2022-12-28T03:49:03.192Z,23.17
2022-12-28T03:54:06.802Z,28.45
2022-12-28T03:59:10.399Z,24.33
2022-12-28T04:04:15.067Z,24.13
2022-12-28T04:09:18.727Z,27.17
2022-12-28T04:14:22.061Z,27.83
2022-12-28T04:19:27.953Z,24.95
2022-12-28T04:24:31.598Z,29.65
2022-12-28T04:29:34.945Z,25.48
2022-12-28T04:34:44.706Z,28.25
2022-12-28T04:39:54.801Z,27.02
2022-12-28T04:45:00.411Z,24.95
2022-12-28T04:50:05.492Z,27.50
2022-12-28T04:55:32.210Z,22.23
2022-12-28T05:00:33.176Z,24.00
2022-12-28T05:05:38.557Z,25.98
2022-12-28T05:10:42.026Z,25.52
2022-12-28T05:15:45.404Z,27.52
2022-12-28T05:20:50.293Z,26.10
2022-12-28T05:25:54.768Z,27.33
2022-12-28T05:31:01.247Z,28.40
2022-12-28T05:36:07.030Z,27.55
2022-12-28T05:41:14.176Z,29.63
2022-12-28T05:46:20.426Z,24.88
2022-12-28T05:51:27.467Z,25.58
2022-12-28T05:56:32.679Z,27.10
2022-12-28T06:01:38.174Z,25.92
2022-12-28T06:06:43.213Z,25.67
2022-12-28T06:11:47.046Z,31.85
2022-12-28T06:16:51.673Z,25.60
2022-12-28T06:21:56.409Z,27.23
2022-12-28T06:26:59.903Z,23.95
2022-12-28T06:32:03.290Z,23.98
2022-12-28T06:37:08.230Z,25.20
2022-12-28T06:47:14.721Z,26.27
2022-12-28T06:52:19.655Z,24.50
2022-12-28T07:02:26.338Z,23.60
2022-12-28T07:07:31.223Z,26.25
2022-12-28T07:12:36.176Z,25.63
2022-12-28T07:17:39.524Z,27.08
2022-12-28T07:22:44.657Z,22.90
2022-12-28T07:27:48.221Z,26.50
2022-12-28T07:32:51.603Z,27.52
2022-12-28T07:37:57.127Z,25.50
2022-12-28T07:43:01.792Z,25.10
2022-12-28T07:48:05.536Z,23.88
2022-12-28T07:53:10.413Z,25.33
2022-12-28T08:03:17.004Z,26.63
2022-12-28T08:08:21.794Z,28.50
2022-12-28T08:18:28.636Z,31.08
2022-12-28T08:23:34.269Z,27.80
2022-12-28T08:28:38.946Z,29.63
2022-12-28T08:33:42.581Z,27.15
2022-12-28T08:38:47.761Z,28.20
2022-12-28T08:43:51.615Z,24.67
2022-12-28T08:48:56.854Z,25.20
2022-12-28T08:54:02.677Z,27.23
2022-12-28T08:59:07.019Z,26.73
2022-12-28T09:04:15.036Z,29.98
2022-12-28T09:09:21.244Z,30.10
2022-12-28T09:14:24.942Z,29.75
2022-12-28T09:19:28.599Z,27.30
2022-12-28T09:24:33.489Z,28.00
2022-12-28T09:34:40.277Z,28.55
2022-12-28T09:39:45.409Z,28.73
2022-12-28T09:44:56.251Z,30.17
2022-12-28T09:50:09.252Z,30.85
2022-12-28T09:55:16.296Z,30.92
2022-12-28T10:00:23.169Z,33.85
2022-12-28T10:05:27.974Z,32.83
2022-12-28T10:10:33.723Z,32.83
2022-12-28T10:15:37.385Z,28.00
2022-12-28T10:20:42.276Z,34.45
2022-12-28T10:31:05.336Z,31.88
2022-12-28T10:36:14.430Z,27.38
2022-12-28T10:41:21.437Z,31.20
2022-12-28T10:46:25.855Z,32.80
2022-12-28T10:51:31.373Z,29.75
2022-12-28T10:56:49.740Z,28.25
2022-12-28T11:01:53.565Z,41.35
2022-12-28T11:07:00.372Z,26.33
2022-12-28T11:12:23.108Z,28.25
2022-12-28T11:17:28.907Z,24.67
2022-12-28T11:22:33.268Z,23.40
2022-12-28T11:27:38.452Z,18.67
2022-12-28T11:32:47.371Z,23.52
2022-12-28T11:37:52.369Z,20.40
2022-12-28T11:48:34.474Z,20.63
2022-12-28T11:53:52.096Z,17.15
2022-12-28T11:59:25.863Z,18.13
2022-12-28T12:04:41.415Z,19.60
2022-12-28T12:09:47.262Z,17.33
2022-12-28T12:14:58.693Z,17.55
2022-12-28T12:20:07.254Z,18.50
2022-12-28T12:25:21.616Z,19.48
2022-12-28T12:30:27.111Z,17.08
2022-12-28T12:35:32.527Z,19.08
2022-12-28T12:41:01.540Z,19.38
2022-12-28T12:46:51.446Z,20.30
2022-12-28T12:52:03.586Z,20.48
2022-12-28T12:57:15.585Z,18.30
2022-12-28T13:03:03.395Z,19.85
2022-12-28T13:08:08.521Z,20.58
2022-12-28T13:13:20.810Z,20.88
2022-12-28T13:23:51.328Z,19.58
2022-12-28T13:28:59.787Z,18.40
2022-12-28T13:34:06.307Z,17.55
2022-12-28T13:39:15.645Z,17.48
2022-12-28T13:44:40.954Z,18.50
2022-12-28T13:49:53.740Z,17.15
2022-12-28T13:55:02.540Z,16.58
2022-12-28T14:00:08.735Z,17.67
2022-12-28T14:05:18.778Z,17.75
2022-12-28T14:10:25.122Z,16.55
2022-12-28T14:15:28.954Z,17.92
2022-12-28T14:20:32.541Z,17.58
2022-12-28T14:25:43.378Z,14.93
2022-12-28T14:30:54.283Z,14.63
2022-12-28T14:36:01.335Z,15.23
2022-12-28T14:41:07.330Z,15.30
2022-12-28T14:46:19.208Z,15.80
2022-12-28T14:51:29.062Z,15.90
2022-12-28T14:56:36.902Z,15.60
2022-12-28T15:01:46.363Z,15.07
2022-12-28T15:06:49.833Z,16.25
2022-12-28T15:17:21.882Z,14.02
2022-12-28T15:22:25.169Z,17.52
2022-12-28T15:27:28.555Z,13.77
2022-12-28T15:32:33.567Z,16.45
2022-12-28T15:42:41.006Z,13.45
2022-12-28T15:47:46.139Z,14.73
2022-12-28T15:52:49.593Z,14.18
2022-12-28T15:57:53.160Z,14.68
2022-12-28T16:02:57.927Z,13.50
2022-12-28T16:13:04.799Z,12.30
2022-12-28T16:18:10.057Z,11.75
2022-12-28T16:23:13.443Z,11.85
2022-12-28T16:28:17.058Z,12.55
2022-12-28T16:33:22.329Z,10.93
2022-12-28T16:38:28.834Z,11.65
2022-12-28T16:43:32.283Z,10.73
2022-12-28T16:48:38.374Z,13.10
2022-12-28T16:53:42.024Z,10.48
2022-12-28T16:58:49.100Z,10.65
2022-12-28T17:03:56.278Z,10.68
2022-12-28T17:09:04.002Z,8.93
2022-12-28T17:14:09.277Z,9.25
2022-12-28T17:19:14.332Z,8.77
2022-12-28T17:24:17.778Z,12.15
2022-12-28T17:29:21.385Z,9.93
2022-12-28T17:34:26.371Z,10.52
2022-12-28T17:39:34.551Z,10.38
2022-12-28T17:44:41.394Z,13.57
2022-12-28T17:49:46.405Z,12.57
2022-12-28T17:54:50.098Z,12.55
2022-12-28T17:59:53.754Z,10.55
2022-12-28T18:04:58.622Z,12.05
2022-12-28T18:15:07.406Z,11.80
2022-12-28T18:25:16.174Z,9.10
2022-12-28T18:30:20.035Z,10.65
2022-12-28T18:35:27.025Z,10.20
2022-12-28T18:40:30.578Z,11.07
2022-12-28T18:45:34.469Z,10.80
2022-12-28T18:50:39.454Z,8.30
2022-12-28T18:55:45.591Z,9.40
2022-12-28T19:00:49.392Z,8.43
2022-12-28T19:06:02.906Z,8.50
2022-12-28T19:11:08.156Z,8.48
2022-12-28T19:21:26.198Z,8.93
2022-12-28T19:26:29.895Z,8.25
2022-12-28T19:31:33.946Z,9.60
2022-12-28T19:36:39.048Z,12.43
2022-12-28T19:41:42.745Z,9.40
2022-12-28T19:46:47.855Z,12.43
2022-12-28T19:51:52.866Z,8.63
2022-12-28T19:56:56.549Z,9.00
2022-12-28T20:02:00.219Z,8.90
2022-12-28T20:07:05.321Z,6.32
2022-12-28T20:12:08.994Z,6.00
2022-12-28T20:17:12.693Z,7.22
2022-12-28T20:22:17.845Z,6.65
2022-12-28T20:27:21.475Z,5.60
2022-12-28T20:32:24.869Z,6.32
2022-12-28T20:37:30.078Z,7.40
2022-12-28T20:42:50.909Z,6.90
2022-12-28T20:47:55.030Z,7.25
2022-12-28T20:52:59.902Z,6.40
2022-12-28T20:58:03.529Z,7.57
2022-12-28T21:03:07.229Z,6.13
2022-12-28T21:08:12.208Z,8.77
2022-12-28T21:13:15.727Z,7.45
2022-12-28T21:18:19.601Z,7.97
2022-12-28T21:23:24.840Z,5.23
2022-12-28T21:28:28.660Z,4.80
2022-12-28T21:33:32.353Z,6.45
2022-12-28T21:38:40.405Z,6.18
2022-12-28T21:43:44.585Z,6.57
2022-12-28T21:48:48.139Z,6.03
2022-12-28T21:53:53.728Z,6.65
2022-12-28T21:58:57.872Z,5.63
2022-12-28T22:04:19.114Z,7.20
2022-12-28T22:09:41.372Z,5.43
2022-12-28T22:14:44.722Z,3.88
2022-12-28T22:19:48.585Z,4.63
2022-12-28T22:24:53.492Z,6.15
2022-12-28T22:35:00.176Z,4.63
2022-12-28T22:40:06.489Z,3.05
2022-12-28T22:45:12.317Z,3.67
2022-12-28T22:55:21.600Z,3.45
2022-12-28T23:05:28.264Z,5.25
2022-12-28T23:10:33.359Z,3.13
2022-12-28T23:15:36.841Z,3.65
2022-12-28T23:20:57.626Z,2.92
2022-12-28T23:26:21.150Z,3.67
2022-12-28T23:31:24.910Z,4.03
2022-12-28T23:36:28.469Z,4.00
2022-12-28T23:41:51.525Z,4.15
2022-12-28T23:46:59.392Z,5.53
2022-12-28T23:52:03.324Z,3.70
2022-12-28T23:57:08.375Z,4.15
